Terminal Aerodrome Forecast
Issued by NWS

Home | Current Version | Previous Version | Text Only | Print | Product List | Glossary On
Versions: 1 2 3 4 5 6 7 8 9 10 11 12 13 14 15 16 17 18 19 20
000
FTUS46 KHNX 250203 AAA
TAFFAT
TAF AMD
KFAT 250203Z 2502/2524 31009KT P6SM BKN060 OVC110
      TEMPO 2502/2506 4SM -RA BR BKN040
     FM250600 31015KT P6SM SCT040
      TEMPO 2506/2510 BKN040=

USA.gov is the U.S. government's official web portal to all federal, state and local government web resources and services.